Everett, Pennsylvania
Current Conditions -  °F | °C
As of 7:07 AM on Saturday 20 Dec 2014 (Local Time) from KAOO Reporting Station
Broken Clouds Broken Clouds  
Wind Chill: 16°   Ceiling: 2000
Heat Index: 22°   Visibility: 10mi
Dew Point: 18°   Wind: 5mph
Humidity: 85%   Direction: 230°SW
Pressure: 30.25"   Gusts: NA
Location:  40.01°N, 78.37°W
Report Text: KAOO 201207Z AUTO 23004KT 10SM BKN020 M06/M08 A3025 RMK AO2 T10561078
Loading
Personal Weather Stations






























Interactive Weather Map New forecast layout! Learn more

10-Day Weather Forecast

Advertisements
Track Severe Weather on mobile